sensor_id;sensor_type;location;lat;lon;timestamp;P1;durP1;ratioP1;P2;durP2;ratioP2
5085;SDS011;4715;51.660;7.082;2022-07-11T00:01:36;2.53;;;1.67;;
5085;SDS011;4715;51.660;7.082;2022-07-11T00:03:58;1.60;;;1.50;;
5085;SDS011;4715;51.660;7.082;2022-07-11T00:06:20;2.20;;;1.60;;
5085;SDS011;4715;51.660;7.082;2022-07-11T00:08:43;1.37;;;1.27;;
5085;SDS011;4715;51.660;7.082;2022-07-11T00:11:05;1.60;;;1.50;;
5085;SDS011;4715;51.660;7.082;2022-07-11T00:13:27;2.37;;;1.67;;
5085;SDS011;4715;51.660;7.082;2022-07-11T00:15:49;1.73;;;1.57;;
5085;SDS011;4715;51.660;7.082;2022-07-11T00:18:11;1.97;;;1.80;;
5085;SDS011;4715;51.660;7.082;2022-07-11T00:20:33;3.07;;;1.57;;
5085;SDS011;4715;51.660;7.082;2022-07-11T00:22:54;2.13;;;2.03;;
5085;SDS011;4715;51.660;7.082;2022-07-11T00:25:18;1.70;;;1.60;;
5085;SDS011;4715;51.660;7.082;2022-07-11T00:27:40;1.80;;;1.70;;
5085;SDS011;4715;51.660;7.082;2022-07-11T00:30:02;1.80;;;1.70;;
5085;SDS011;4715;51.660;7.082;2022-07-11T00:32:24;2.87;;;1.80;;
5085;SDS011;4715;51.660;7.082;2022-07-11T00:34:46;1.60;;;1.50;;
5085;SDS011;4715;51.660;7.082;2022-07-11T00:37:08;1.60;;;1.50;;
5085;SDS011;4715;51.660;7.082;2022-07-11T00:39:30;1.77;;;1.60;;
5085;SDS011;4715;51.660;7.082;2022-07-11T00:41:53;1.67;;;1.57;;
5085;SDS011;4715;51.660;7.082;2022-07-11T00:44:15;1.87;;;1.77;;
5085;SDS011;4715;51.660;7.082;2022-07-11T00:46:37;1.77;;;1.60;;
5085;SDS011;4715;51.660;7.082;2022-07-11T00:48:59;2.33;;;2.10;;
5085;SDS011;4715;51.660;7.082;2022-07-11T00:51:22;1.50;;;1.40;;
5085;SDS011;4715;51.660;7.082;2022-07-11T00:53:44;1.60;;;1.50;;
5085;SDS011;4715;51.660;7.082;2022-07-11T00:56:06;1.33;;;1.33;;
5085;SDS011;4715;51.660;7.082;2022-07-11T00:58:30;1.27;;;1.23;;
5085;SDS011;4715;51.660;7.082;2022-07-11T01:00:52;1.87;;;1.30;;
5085;SDS011;4715;51.660;7.082;2022-07-11T01:03:14;1.50;;;1.37;;
5085;SDS011;4715;51.660;7.082;2022-07-11T01:05:36;1.43;;;1.33;;
5085;SDS011;4715;51.660;7.082;2022-07-11T01:07:59;2.27;;;1.30;;
5085;SDS011;4715;51.660;7.082;2022-07-11T01:10:22;1.50;;;1.40;;
5085;SDS011;4715;51.660;7.082;2022-07-11T01:12:44;1.70;;;1.60;;
5085;SDS011;4715;51.660;7.082;2022-07-11T01:15:07;1.37;;;1.27;;
5085;SDS011;4715;51.660;7.082;2022-07-11T01:17:30;1.97;;;1.60;;
5085;SDS011;4715;51.660;7.082;2022-07-11T01:19:52;1.77;;;1.43;;
5085;SDS011;4715;51.660;7.082;2022-07-11T01:22:14;2.40;;;1.40;;
5085;SDS011;4715;51.660;7.082;2022-07-11T01:24:39;2.40;;;1.37;;
5085;SDS011;4715;51.660;7.082;2022-07-11T01:27:02;1.90;;;1.63;;
5085;SDS011;4715;51.660;7.082;2022-07-11T01:29:25;1.43;;;1.37;;
5085;SDS011;4715;51.660;7.082;2022-07-11T01:31:47;1.70;;;1.60;;
5085;SDS011;4715;51.660;7.082;2022-07-11T01:34:09;1.60;;;1.50;;
5085;SDS011;4715;51.660;7.082;2022-07-11T01:36:32;1.27;;;1.17;;
5085;SDS011;4715;51.660;7.082;2022-07-11T01:38:54;3.03;;;1.30;;
5085;SDS011;4715;51.660;7.082;2022-07-11T01:41:17;3.17;;;1.30;;
5085;SDS011;4715;51.660;7.082;2022-07-11T01:43:39;1.60;;;1.47;;
5085;SDS011;4715;51.660;7.082;2022-07-11T01:46:01;1.60;;;1.50;;
5085;SDS011;4715;51.660;7.082;2022-07-11T01:48:23;1.40;;;1.30;;
5085;SDS011;4715;51.660;7.082;2022-07-11T01:50:45;1.70;;;1.60;;
5085;SDS011;4715;51.660;7.082;2022-07-11T01:53:07;1.57;;;1.47;;
5085;SDS011;4715;51.660;7.082;2022-07-11T01:55:29;2.00;;;1.67;;
5085;SDS011;4715;51.660;7.082;2022-07-11T01:57:52;1.60;;;1.50;;
5085;SDS011;4715;51.660;7.082;2022-07-11T02:00:14;2.30;;;1.80;;
5085;SDS011;4715;51.660;7.082;2022-07-11T02:02:36;1.67;;;1.57;;
5085;SDS011;4715;51.660;7.082;2022-07-11T02:04:58;1.77;;;1.67;;
5085;SDS011;4715;51.660;7.082;2022-07-11T02:07:20;1.70;;;1.60;;
5085;SDS011;4715;51.660;7.082;2022-07-11T02:09:56;1.90;;;1.80;;
5085;SDS011;4715;51.660;7.082;2022-07-11T02:12:18;1.87;;;1.77;;
5085;SDS011;4715;51.660;7.082;2022-07-11T02:14:41;1.90;;;1.80;;
5085;SDS011;4715;51.660;7.082;2022-07-11T02:17:03;2.23;;;2.10;;
5085;SDS011;4715;51.660;7.082;2022-07-11T02:19:25;1.70;;;1.60;;
5085;SDS011;4715;51.660;7.082;2022-07-11T02:21:47;2.40;;;1.97;;
5085;SDS011;4715;51.660;7.082;2022-07-11T02:24:09;3.17;;;1.40;;
5085;SDS011;4715;51.660;7.082;2022-07-11T02:26:30;1.80;;;1.70;;
5085;SDS011;4715;51.660;7.082;2022-07-11T02:28:52;1.50;;;1.40;;
5085;SDS011;4715;51.660;7.082;2022-07-11T02:31:16;2.67;;;1.87;;
5085;SDS011;4715;51.660;7.082;2022-07-11T02:33:37;1.33;;;1.30;;
5085;SDS011;4715;51.660;7.082;2022-07-11T02:35:59;1.47;;;1.37;;
5085;SDS011;4715;51.660;7.082;2022-07-11T02:38:21;1.73;;;1.33;;
5085;SDS011;4715;51.660;7.082;2022-07-11T02:40:43;1.70;;;1.60;;
5085;SDS011;4715;51.660;7.082;2022-07-11T02:43:05;3.40;;;1.47;;
5085;SDS011;4715;51.660;7.082;2022-07-11T02:45:28;1.80;;;1.70;;
5085;SDS011;4715;51.660;7.082;2022-07-11T02:47:51;1.50;;;1.40;;
5085;SDS011;4715;51.660;7.082;2022-07-11T02:50:13;1.80;;;1.70;;
5085;SDS011;4715;51.660;7.082;2022-07-11T02:52:35;1.87;;;1.57;;
5085;SDS011;4715;51.660;7.082;2022-07-11T02:54:58;1.43;;;1.33;;
5085;SDS011;4715;51.660;7.082;2022-07-11T02:57:19;2.17;;;1.97;;
5085;SDS011;4715;51.660;7.082;2022-07-11T02:59:41;2.53;;;1.73;;
5085;SDS011;4715;51.660;7.082;2022-07-11T03:02:03;1.73;;;1.63;;
5085;SDS011;4715;51.660;7.082;2022-07-11T03:04:27;1.60;;;1.50;;
5085;SDS011;4715;51.660;7.082;2022-07-11T03:06:48;2.10;;;2.00;;
5085;SDS011;4715;51.660;7.082;2022-07-11T03:09:11;1.93;;;1.40;;
5085;SDS011;4715;51.660;7.082;2022-07-11T03:11:33;1.60;;;1.50;;
5085;SDS011;4715;51.660;7.082;2022-07-11T03:13:55;1.30;;;1.20;;
5085;SDS011;4715;51.660;7.082;2022-07-11T03:16:16;1.40;;;1.30;;
5085;SDS011;4715;51.660;7.082;2022-07-11T03:18:38;1.70;;;1.40;;
5085;SDS011;4715;51.660;7.082;2022-07-11T03:21:01;2.00;;;1.60;;
5085;SDS011;4715;51.660;7.082;2022-07-11T03:23:23;1.37;;;1.27;;
5085;SDS011;4715;51.660;7.082;2022-07-11T03:25:45;1.63;;;1.53;;
5085;SDS011;4715;51.660;7.082;2022-07-11T03:28:07;2.57;;;1.37;;
5085;SDS011;4715;51.660;7.082;2022-07-11T03:30:29;1.70;;;1.40;;
5085;SDS011;4715;51.660;7.082;2022-07-11T03:32:51;1.50;;;1.40;;
5085;SDS011;4715;51.660;7.082;2022-07-11T03:35:13;1.70;;;1.60;;
5085;SDS011;4715;51.660;7.082;2022-07-11T03:37:54;1.67;;;1.57;;
5085;SDS011;4715;51.660;7.082;2022-07-11T03:40:16;1.50;;;1.40;;
5085;SDS011;4715;51.660;7.082;2022-07-11T03:42:38;2.03;;;1.33;;
5085;SDS011;4715;51.660;7.082;2022-07-11T03:44:59;1.30;;;1.30;;
5085;SDS011;4715;51.660;7.082;2022-07-11T03:47:21;1.60;;;1.50;;
5085;SDS011;4715;51.660;7.082;2022-07-11T03:49:43;1.30;;;1.30;;
5085;SDS011;4715;51.660;7.082;2022-07-11T03:52:05;1.50;;;1.37;;
5085;SDS011;4715;51.660;7.082;2022-07-11T03:54:29;1.80;;;1.30;;
5085;SDS011;4715;51.660;7.082;2022-07-11T03:56:51;1.40;;;1.30;;
5085;SDS011;4715;51.660;7.082;2022-07-11T03:59:13;1.97;;;1.87;;
5085;SDS011;4715;51.660;7.082;2022-07-11T04:01:34;2.17;;;1.40;;
5085;SDS011;4715;51.660;7.082;2022-07-11T04:03:56;1.30;;;1.30;;
5085;SDS011;4715;51.660;7.082;2022-07-11T04:06:18;1.57;;;1.47;;
5085;SDS011;4715;51.660;7.082;2022-07-11T04:08:40;2.07;;;1.30;;
5085;SDS011;4715;51.660;7.082;2022-07-11T04:11:04;1.03;;;1.03;;
5085;SDS011;4715;51.660;7.082;2022-07-11T04:13:25;1.43;;;1.33;;
5085;SDS011;4715;51.660;7.082;2022-07-11T04:15:47;1.20;;;1.20;;
5085;SDS011;4715;51.660;7.082;2022-07-11T04:18:09;1.40;;;1.30;;
5085;SDS011;4715;51.660;7.082;2022-07-11T04:20:31;1.40;;;1.30;;
5085;SDS011;4715;51.660;7.082;2022-07-11T04:22:53;1.00;;;1.00;;
5085;SDS011;4715;51.660;7.082;2022-07-11T04:25:15;2.83;;;1.60;;
5085;SDS011;4715;51.660;7.082;2022-07-11T04:27:38;1.67;;;1.33;;
5085;SDS011;4715;51.660;7.082;2022-07-11T04:30:00;2.70;;;1.53;;
5085;SDS011;4715;51.660;7.082;2022-07-11T04:32:21;2.40;;;1.93;;
5085;SDS011;4715;51.660;7.082;2022-07-11T04:34:43;1.50;;;1.20;;
5085;SDS011;4715;51.660;7.082;2022-07-11T04:37:05;1.43;;;1.23;;
5085;SDS011;4715;51.660;7.082;2022-07-11T04:39:27;1.40;;;1.30;;
5085;SDS011;4715;51.660;7.082;2022-07-11T04:41:49;1.47;;;1.40;;
5085;SDS011;4715;51.660;7.082;2022-07-11T04:44:12;1.37;;;1.17;;
5085;SDS011;4715;51.660;7.082;2022-07-11T04:46:34;1.57;;;1.20;;
5085;SDS011;4715;51.660;7.082;2022-07-11T04:48:56;1.00;;;1.00;;
5085;SDS011;4715;51.660;7.082;2022-07-11T04:51:17;1.50;;;1.40;;
5085;SDS011;4715;51.660;7.082;2022-07-11T04:53:39;1.07;;;1.07;;
5085;SDS011;4715;51.660;7.082;2022-07-11T04:56:01;1.00;;;1.00;;
5085;SDS011;4715;51.660;7.082;2022-07-11T04:58:23;1.60;;;1.10;;
5085;SDS011;4715;51.660;7.082;2022-07-11T05:00:47;1.20;;;1.10;;
5085;SDS011;4715;51.660;7.082;2022-07-11T05:03:14;1.13;;;1.13;;
5085;SDS011;4715;51.660;7.082;2022-07-11T05:05:40;1.43;;;1.33;;
5085;SDS011;4715;51.660;7.082;2022-07-11T05:08:02;1.07;;;1.00;;
5085;SDS011;4715;51.660;7.082;2022-07-11T05:10:25;1.30;;;1.20;;
5085;SDS011;4715;51.660;7.082;2022-07-11T05:12:47;5.73;;;1.20;;
5085;SDS011;4715;51.660;7.082;2022-07-11T05:15:09;1.43;;;1.07;;
5085;SDS011;4715;51.660;7.082;2022-07-11T05:17:33;1.10;;;1.00;;
5085;SDS011;4715;51.660;7.082;2022-07-11T05:19:55;1.00;;;1.00;;
5085;SDS011;4715;51.660;7.082;2022-07-11T05:22:17;0.97;;;0.97;;
5085;SDS011;4715;51.660;7.082;2022-07-11T05:24:39;1.23;;;1.13;;
5085;SDS011;4715;51.660;7.082;2022-07-11T05:27:01;0.90;;;0.90;;
5085;SDS011;4715;51.660;7.082;2022-07-11T05:29:23;1.00;;;1.00;;
5085;SDS011;4715;51.660;7.082;2022-07-11T05:31:46;0.97;;;0.97;;
5085;SDS011;4715;51.660;7.082;2022-07-11T05:34:12;1.00;;;1.00;;
5085;SDS011;4715;51.660;7.082;2022-07-11T05:36:34;2.03;;;1.00;;
5085;SDS011;4715;51.660;7.082;2022-07-11T05:38:57;0.80;;;0.80;;
5085;SDS011;4715;51.660;7.082;2022-07-11T05:41:22;1.30;;;1.20;;
5085;SDS011;4715;51.660;7.082;2022-07-11T05:43:44;0.80;;;0.80;;
5085;SDS011;4715;51.660;7.082;2022-07-11T05:46:06;0.80;;;0.80;;
5085;SDS011;4715;51.660;7.082;2022-07-11T05:48:28;1.43;;;0.90;;
5085;SDS011;4715;51.660;7.082;2022-07-11T05:50:51;1.37;;;1.00;;
5085;SDS011;4715;51.660;7.082;2022-07-11T05:53:13;1.33;;;1.00;;
5085;SDS011;4715;51.660;7.082;2022-07-11T05:55:35;1.47;;;0.90;;
5085;SDS011;4715;51.660;7.082;2022-07-11T05:57:59;1.00;;;1.00;;
5085;SDS011;4715;51.660;7.082;2022-07-11T06:00:21;0.80;;;0.80;;
5085;SDS011;4715;51.660;7.082;2022-07-11T06:02:45;0.80;;;0.80;;
5085;SDS011;4715;51.660;7.082;2022-07-11T06:05:07;0.90;;;0.90;;
5085;SDS011;4715;51.660;7.082;2022-07-11T06:07:33;1.00;;;0.90;;
5085;SDS011;4715;51.660;7.082;2022-07-11T06:10:16;0.80;;;0.80;;
5085;SDS011;4715;51.660;7.082;2022-07-11T06:12:38;0.87;;;0.87;;
5085;SDS011;4715;51.660;7.082;2022-07-11T06:15:01;1.00;;;1.00;;
5085;SDS011;4715;51.660;7.082;2022-07-11T06:17:23;1.17;;;0.80;;
5085;SDS011;4715;51.660;7.082;2022-07-11T06:19:48;1.17;;;1.17;;
5085;SDS011;4715;51.660;7.082;2022-07-11T06:22:10;1.00;;;1.00;;
5085;SDS011;4715;51.660;7.082;2022-07-11T06:24:34;0.90;;;0.90;;
5085;SDS011;4715;51.660;7.082;2022-07-11T06:26:56;1.00;;;1.00;;
5085;SDS011;4715;51.660;7.082;2022-07-11T06:29:20;0.80;;;0.80;;
5085;SDS011;4715;51.660;7.082;2022-07-11T06:31:42;1.17;;;1.00;;
5085;SDS011;4715;51.660;7.082;2022-07-11T06:34:06;0.90;;;0.90;;
5085;SDS011;4715;51.660;7.082;2022-07-11T06:36:28;1.30;;;1.20;;
5085;SDS011;4715;51.660;7.082;2022-07-11T06:38:50;0.80;;;0.80;;
5085;SDS011;4715;51.660;7.082;2022-07-11T06:41:13;1.00;;;1.00;;
5085;SDS011;4715;51.660;7.082;2022-07-11T06:43:35;1.63;;;1.20;;
5085;SDS011;4715;51.660;7.082;2022-07-11T06:45:57;1.47;;;1.20;;
5085;SDS011;4715;51.660;7.082;2022-07-11T06:48:21;1.17;;;1.07;;
5085;SDS011;4715;51.660;7.082;2022-07-11T06:50:43;1.70;;;1.00;;
5085;SDS011;4715;51.660;7.082;2022-07-11T06:53:06;1.57;;;1.03;;
5085;SDS011;4715;51.660;7.082;2022-07-11T06:55:28;1.00;;;1.00;;
5085;SDS011;4715;51.660;7.082;2022-07-11T06:57:52;1.13;;;1.03;;
5085;SDS011;4715;51.660;7.082;2022-07-11T07:00:15;2.03;;;1.20;;
5085;SDS011;4715;51.660;7.082;2022-07-11T07:02:37;1.63;;;1.53;;
5085;SDS011;4715;51.660;7.082;2022-07-11T07:04:59;1.60;;;1.50;;
5085;SDS011;4715;51.660;7.082;2022-07-11T07:07:21;1.70;;;1.50;;
5085;SDS011;4715;51.660;7.082;2022-07-11T07:09:44;1.30;;;1.20;;
5085;SDS011;4715;51.660;7.082;2022-07-11T07:12:06;2.13;;;1.53;;
5085;SDS011;4715;51.660;7.082;2022-07-11T07:14:32;1.93;;;1.80;;
5085;SDS011;4715;51.660;7.082;2022-07-11T07:16:54;1.20;;;1.10;;
5085;SDS011;4715;51.660;7.082;2022-07-11T07:19:16;3.33;;;1.30;;
5085;SDS011;4715;51.660;7.082;2022-07-11T07:21:38;2.43;;;1.57;;
5085;SDS011;4715;51.660;7.082;2022-07-11T07:24:04;2.07;;;1.47;;
5085;SDS011;4715;51.660;7.082;2022-07-11T07:26:27;1.40;;;1.30;;
5085;SDS011;4715;51.660;7.082;2022-07-11T07:28:49;2.70;;;1.73;;
5085;SDS011;4715;51.660;7.082;2022-07-11T07:31:13;2.03;;;1.20;;
5085;SDS011;4715;51.660;7.082;2022-07-11T07:33:36;1.87;;;1.17;;
5085;SDS011;4715;51.660;7.082;2022-07-11T07:36:00;1.80;;;1.27;;
5085;SDS011;4715;51.660;7.082;2022-07-11T07:38:23;1.33;;;1.23;;
5085;SDS011;4715;51.660;7.082;2022-07-11T07:40:45;1.20;;;1.10;;
5085;SDS011;4715;51.660;7.082;2022-07-11T07:43:07;1.13;;;0.90;;
5085;SDS011;4715;51.660;7.082;2022-07-11T07:45:29;2.10;;;1.30;;
5085;SDS011;4715;51.660;7.082;2022-07-11T07:47:54;1.30;;;1.30;;
5085;SDS011;4715;51.660;7.082;2022-07-11T07:50:30;1.93;;;1.10;;
5085;SDS011;4715;51.660;7.082;2022-07-11T07:52:56;1.20;;;1.20;;
5085;SDS011;4715;51.660;7.082;2022-07-11T07:55:18;1.00;;;1.00;;
5085;SDS011;4715;51.660;7.082;2022-07-11T07:58:00;0.90;;;0.90;;
5085;SDS011;4715;51.660;7.082;2022-07-11T08:00:22;1.03;;;1.03;;
5085;SDS011;4715;51.660;7.082;2022-07-11T08:03:04;0.70;;;0.70;;
5085;SDS011;4715;51.660;7.082;2022-07-11T08:05:27;1.00;;;1.00;;
5085;SDS011;4715;51.660;7.082;2022-07-11T08:07:49;0.90;;;0.90;;
5085;SDS011;4715;51.660;7.082;2022-07-11T08:10:13;0.97;;;0.97;;
5085;SDS011;4715;51.660;7.082;2022-07-11T08:12:36;1.80;;;0.80;;
5085;SDS011;4715;51.660;7.082;2022-07-11T08:14:58;1.00;;;1.00;;
5085;SDS011;4715;51.660;7.082;2022-07-11T08:17:21;1.10;;;0.93;;
5085;SDS011;4715;51.660;7.082;2022-07-11T08:19:46;0.90;;;0.90;;
5085;SDS011;4715;51.660;7.082;2022-07-11T08:22:08;0.80;;;0.80;;
5085;SDS011;4715;51.660;7.082;2022-07-11T08:24:31;0.93;;;0.93;;
5085;SDS011;4715;51.660;7.082;2022-07-11T08:26:53;0.90;;;0.90;;
5085;SDS011;4715;51.660;7.082;2022-07-11T08:29:17;1.27;;;1.17;;
5085;SDS011;4715;51.660;7.082;2022-07-11T08:34:08;0.70;;;0.70;;
5085;SDS011;4715;51.660;7.082;2022-07-11T08:36:34;0.80;;;0.80;;
5085;SDS011;4715;51.660;7.082;2022-07-11T08:39:00;4.70;;;1.10;;
5085;SDS011;4715;51.660;7.082;2022-07-11T08:41:25;0.77;;;0.77;;
5085;SDS011;4715;51.660;7.082;2022-07-11T08:43:49;0.70;;;0.70;;
5085;SDS011;4715;51.660;7.082;2022-07-11T08:46:13;0.80;;;0.80;;
5085;SDS011;4715;51.660;7.082;2022-07-11T08:48:37;1.07;;;0.97;;
5085;SDS011;4715;51.660;7.082;2022-07-11T08:51:01;0.90;;;0.90;;
5085;SDS011;4715;51.660;7.082;2022-07-11T08:53:29;2.00;;;1.20;;
5085;SDS011;4715;51.660;7.082;2022-07-11T08:55:54;0.80;;;0.80;;
5085;SDS011;4715;51.660;7.082;2022-07-11T08:58:19;0.70;;;0.70;;
5085;SDS011;4715;51.660;7.082;2022-07-11T09:00:43;0.90;;;0.90;;
5085;SDS011;4715;51.660;7.082;2022-07-11T09:03:06;0.80;;;0.80;;
5085;SDS011;4715;51.660;7.082;2022-07-11T09:05:28;0.80;;;0.80;;
5085;SDS011;4715;51.660;7.082;2022-07-11T09:07:55;1.30;;;1.20;;
5085;SDS011;4715;51.660;7.082;2022-07-11T09:10:20;1.00;;;1.00;;
5085;SDS011;4715;51.660;7.082;2022-07-11T09:12:57;1.00;;;1.00;;
5085;SDS011;4715;51.660;7.082;2022-07-11T09:15:30;0.80;;;0.80;;
5085;SDS011;4715;51.660;7.082;2022-07-11T09:17:57;0.80;;;0.80;;
5085;SDS011;4715;51.660;7.082;2022-07-11T09:20:19;0.80;;;0.80;;
5085;SDS011;4715;51.660;7.082;2022-07-11T09:22:41;0.87;;;0.87;;
5085;SDS011;4715;51.660;7.082;2022-07-11T09:25:22;1.00;;;0.70;;
5085;SDS011;4715;51.660;7.082;2022-07-11T09:27:53;1.00;;;1.00;;
5085;SDS011;4715;51.660;7.082;2022-07-11T09:30:22;0.67;;;0.67;;
5085;SDS011;4715;51.660;7.082;2022-07-11T09:32:54;1.10;;;0.80;;
5085;SDS011;4715;51.660;7.082;2022-07-11T09:35:21;0.80;;;0.80;;
5085;SDS011;4715;51.660;7.082;2022-07-11T09:37:45;0.63;;;0.63;;
5085;SDS011;4715;51.660;7.082;2022-07-11T09:40:12;0.60;;;0.60;;
5085;SDS011;4715;51.660;7.082;2022-07-11T09:42:46;0.70;;;0.70;;
5085;SDS011;4715;51.660;7.082;2022-07-11T09:45:10;0.67;;;0.67;;
5085;SDS011;4715;51.660;7.082;2022-07-11T09:47:41;0.60;;;0.60;;
5085;SDS011;4715;51.660;7.082;2022-07-11T09:50:06;0.70;;;0.70;;
5085;SDS011;4715;51.660;7.082;2022-07-11T09:53:27;0.90;;;0.73;;
5085;SDS011;4715;51.660;7.082;2022-07-11T09:55:44;0.70;;;0.60;;
5085;SDS011;4715;51.660;7.082;2022-07-11T09:58:08;0.70;;;0.70;;
5085;SDS011;4715;51.660;7.082;2022-07-11T10:00:31;1.43;;;0.70;;
5085;SDS011;4715;51.660;7.082;2022-07-11T10:02:53;0.70;;;0.70;;
5085;SDS011;4715;51.660;7.082;2022-07-11T10:05:16;0.70;;;0.70;;
5085;SDS011;4715;51.660;7.082;2022-07-11T10:07:39;0.70;;;0.70;;
5085;SDS011;4715;51.660;7.082;2022-07-11T10:10:02;0.80;;;0.73;;
5085;SDS011;4715;51.660;7.082;2022-07-11T10:12:26;0.60;;;0.60;;
5085;SDS011;4715;51.660;7.082;2022-07-11T10:14:53;0.70;;;0.70;;
5085;SDS011;4715;51.660;7.082;2022-07-11T10:17:18;2.03;;;0.80;;
5085;SDS011;4715;51.660;7.082;2022-07-11T10:19:53;1.07;;;0.80;;
5085;SDS011;4715;51.660;7.082;2022-07-11T10:22:23;0.70;;;0.70;;
5085;SDS011;4715;51.660;7.082;2022-07-11T10:24:51;0.60;;;0.60;;
5085;SDS011;4715;51.660;7.082;2022-07-11T10:27:18;0.60;;;0.60;;
5085;SDS011;4715;51.660;7.082;2022-07-11T10:29:49;0.80;;;0.80;;
5085;SDS011;4715;51.660;7.082;2022-07-11T10:32:13;0.80;;;0.80;;
5085;SDS011;4715;51.660;7.082;2022-07-11T10:34:35;0.70;;;0.70;;
5085;SDS011;4715;51.660;7.082;2022-07-11T10:36:58;0.77;;;0.77;;
5085;SDS011;4715;51.660;7.082;2022-07-11T10:39:22;0.80;;;0.67;;
5085;SDS011;4715;51.660;7.082;2022-07-11T10:41:55;0.87;;;0.87;;
5085;SDS011;4715;51.660;7.082;2022-07-11T10:44:19;0.50;;;0.50;;
5085;SDS011;4715;51.660;7.082;2022-07-11T10:46:41;0.53;;;0.53;;
5085;SDS011;4715;51.660;7.082;2022-07-11T10:49:07;0.70;;;0.70;;
5085;SDS011;4715;51.660;7.082;2022-07-11T10:51:47;0.63;;;0.63;;
5085;SDS011;4715;51.660;7.082;2022-07-11T10:54:17;0.70;;;0.60;;
5085;SDS011;4715;51.660;7.082;2022-07-11T10:57:02;0.70;;;0.70;;
5085;SDS011;4715;51.660;7.082;2022-07-11T10:59:33;0.67;;;0.67;;
5085;SDS011;4715;51.660;7.082;2022-07-11T11:02:03;0.83;;;0.83;;
5085;SDS011;4715;51.660;7.082;2022-07-11T11:04:50;0.83;;;0.80;;
5085;SDS011;4715;51.660;7.082;2022-07-11T11:07:29;0.80;;;0.80;;
5085;SDS011;4715;51.660;7.082;2022-07-11T11:09:52;0.80;;;0.80;;
5085;SDS011;4715;51.660;7.082;2022-07-11T11:12:13;0.80;;;0.80;;
5085;SDS011;4715;51.660;7.082;2022-07-11T11:14:35;0.70;;;0.70;;
5085;SDS011;4715;51.660;7.082;2022-07-11T11:19:54;0.70;;;0.70;;
5085;SDS011;4715;51.660;7.082;2022-07-11T11:22:17;0.80;;;0.80;;
5085;SDS011;4715;51.660;7.082;2022-07-11T11:24:40;0.80;;;0.80;;
5085;SDS011;4715;51.660;7.082;2022-07-11T11:27:07;0.70;;;0.70;;
5085;SDS011;4715;51.660;7.082;2022-07-11T11:29:37;0.60;;;0.60;;
5085;SDS011;4715;51.660;7.082;2022-07-11T11:32:02;0.80;;;0.80;;
5085;SDS011;4715;51.660;7.082;2022-07-11T11:34:26;0.70;;;0.70;;
5085;SDS011;4715;51.660;7.082;2022-07-11T11:36:53;0.87;;;0.87;;
5085;SDS011;4715;51.660;7.082;2022-07-11T11:39:21;0.80;;;0.80;;
5085;SDS011;4715;51.660;7.082;2022-07-11T11:41:44;0.87;;;0.87;;
5085;SDS011;4715;51.660;7.082;2022-07-11T11:44:06;0.80;;;0.80;;
5085;SDS011;4715;51.660;7.082;2022-07-11T11:46:28;0.80;;;0.80;;
5085;SDS011;4715;51.660;7.082;2022-07-11T11:48:54;0.80;;;0.80;;
5085;SDS011;4715;51.660;7.082;2022-07-11T11:51:17;0.80;;;0.80;;
5085;SDS011;4715;51.660;7.082;2022-07-11T11:53:42;0.73;;;0.73;;
5085;SDS011;4715;51.660;7.082;2022-07-11T11:56:11;1.33;;;1.33;;
5085;SDS011;4715;51.660;7.082;2022-07-11T11:58:35;0.90;;;0.90;;
5085;SDS011;4715;51.660;7.082;2022-07-11T12:00:57;0.70;;;0.70;;
5085;SDS011;4715;51.660;7.082;2022-07-11T12:03:21;1.30;;;0.73;;
5085;SDS011;4715;51.660;7.082;2022-07-11T12:05:52;0.70;;;0.70;;
5085;SDS011;4715;51.660;7.082;2022-07-11T12:08:24;0.73;;;0.73;;
5085;SDS011;4715;51.660;7.082;2022-07-11T12:10:53;1.40;;;0.80;;
5085;SDS011;4715;51.660;7.082;2022-07-11T12:13:18;0.80;;;0.80;;
5085;SDS011;4715;51.660;7.082;2022-07-11T12:15:40;0.70;;;0.70;;
5085;SDS011;4715;51.660;7.082;2022-07-11T12:18:16;0.90;;;0.90;;
5085;SDS011;4715;51.660;7.082;2022-07-11T12:20:41;0.70;;;0.70;;
5085;SDS011;4715;51.660;7.082;2022-07-11T12:23:05;0.80;;;0.80;;
5085;SDS011;4715;51.660;7.082;2022-07-11T12:25:28;0.60;;;0.60;;
5085;SDS011;4715;51.660;7.082;2022-07-11T12:27:56;0.60;;;0.60;;
5085;SDS011;4715;51.660;7.082;2022-07-11T12:30:21;0.60;;;0.60;;
5085;SDS011;4715;51.660;7.082;2022-07-11T12:32:45;0.80;;;0.80;;
5085;SDS011;4715;51.660;7.082;2022-07-11T12:35:23;1.33;;;1.17;;
5085;SDS011;4715;51.660;7.082;2022-07-11T12:37:45;0.70;;;0.70;;
5085;SDS011;4715;51.660;7.082;2022-07-11T12:40:10;0.80;;;0.80;;
5085;SDS011;4715;51.660;7.082;2022-07-11T12:42:34;0.73;;;0.73;;
5085;SDS011;4715;51.660;7.082;2022-07-11T12:44:58;0.70;;;0.70;;
5085;SDS011;4715;51.660;7.082;2022-07-11T12:47:28;0.80;;;0.80;;
5085;SDS011;4715;51.660;7.082;2022-07-11T12:49:50;0.60;;;0.60;;
5085;SDS011;4715;51.660;7.082;2022-07-11T12:52:15;0.60;;;0.60;;
5085;SDS011;4715;51.660;7.082;2022-07-11T12:54:37;0.80;;;0.80;;
5085;SDS011;4715;51.660;7.082;2022-07-11T12:56:59;0.80;;;0.80;;
5085;SDS011;4715;51.660;7.082;2022-07-11T12:59:23;0.80;;;0.80;;
5085;SDS011;4715;51.660;7.082;2022-07-11T13:01:55;0.60;;;0.60;;
5085;SDS011;4715;51.660;7.082;2022-07-11T13:04:27;0.80;;;0.80;;
5085;SDS011;4715;51.660;7.082;2022-07-11T13:06:54;0.80;;;0.80;;
5085;SDS011;4715;51.660;7.082;2022-07-11T13:09:47;0.70;;;0.70;;
5085;SDS011;4715;51.660;7.082;2022-07-11T13:12:11;0.70;;;0.70;;
5085;SDS011;4715;51.660;7.082;2022-07-11T13:14:36;0.70;;;0.70;;
5085;SDS011;4715;51.660;7.082;2022-07-11T13:17:25;0.80;;;0.80;;
5085;SDS011;4715;51.660;7.082;2022-07-11T13:19:47;0.70;;;0.70;;
5085;SDS011;4715;51.660;7.082;2022-07-11T13:22:09;1.00;;;0.90;;
5085;SDS011;4715;51.660;7.082;2022-07-11T13:24:31;0.87;;;0.87;;
5085;SDS011;4715;51.660;7.082;2022-07-11T13:26:53;0.70;;;0.70;;
5085;SDS011;4715;51.660;7.082;2022-07-11T13:29:16;0.70;;;0.70;;
5085;SDS011;4715;51.660;7.082;2022-07-11T13:31:38;0.77;;;0.77;;
5085;SDS011;4715;51.660;7.082;2022-07-11T13:34:03;0.70;;;0.70;;
5085;SDS011;4715;51.660;7.082;2022-07-11T13:36:25;0.70;;;0.70;;
5085;SDS011;4715;51.660;7.082;2022-07-11T13:38:47;7.50;;;6.80;;
5085;SDS011;4715;51.660;7.082;2022-07-11T13:41:10;7.80;;;7.10;;
5085;SDS011;4715;51.660;7.082;2022-07-11T13:43:31;5.17;;;4.70;;
5085;SDS011;4715;51.660;7.082;2022-07-11T13:45:53;5.10;;;4.70;;
5085;SDS011;4715;51.660;7.082;2022-07-11T13:48:16;4.63;;;4.37;;
5085;SDS011;4715;51.660;7.082;2022-07-11T13:50:39;3.20;;;3.00;;
5085;SDS011;4715;51.660;7.082;2022-07-11T13:53:02;3.30;;;3.10;;
5085;SDS011;4715;51.660;7.082;2022-07-11T13:55:24;2.33;;;2.23;;
5085;SDS011;4715;51.660;7.082;2022-07-11T13:57:49;2.03;;;1.93;;
5085;SDS011;4715;51.660;7.082;2022-07-11T14:00:13;1.70;;;1.60;;
5085;SDS011;4715;51.660;7.082;2022-07-11T14:02:35;1.83;;;1.73;;
5085;SDS011;4715;51.660;7.082;2022-07-11T14:04:57;1.40;;;1.30;;
5085;SDS011;4715;51.660;7.082;2022-07-11T14:07:23;1.50;;;1.40;;
5085;SDS011;4715;51.660;7.082;2022-07-11T14:09:45;1.17;;;1.10;;
5085;SDS011;4715;51.660;7.082;2022-07-11T14:12:07;0.90;;;0.90;;
5085;SDS011;4715;51.660;7.082;2022-07-11T14:14:30;1.40;;;1.30;;
5085;SDS011;4715;51.660;7.082;2022-07-11T14:16:53;0.97;;;0.97;;
5085;SDS011;4715;51.660;7.082;2022-07-11T14:19:14;0.90;;;0.90;;
5085;SDS011;4715;51.660;7.082;2022-07-11T14:21:36;0.90;;;0.90;;
5085;SDS011;4715;51.660;7.082;2022-07-11T14:24:00;3.37;;;1.00;;
5085;SDS011;4715;51.660;7.082;2022-07-11T14:26:22;0.77;;;0.77;;
5085;SDS011;4715;51.660;7.082;2022-07-11T14:28:44;1.00;;;0.90;;
5085;SDS011;4715;51.660;7.082;2022-07-11T14:31:06;2.50;;;0.80;;
5085;SDS011;4715;51.660;7.082;2022-07-11T14:33:29;1.00;;;1.00;;
5085;SDS011;4715;51.660;7.082;2022-07-11T14:35:51;0.80;;;0.80;;
5085;SDS011;4715;51.660;7.082;2022-07-11T14:38:13;0.63;;;0.63;;
5085;SDS011;4715;51.660;7.082;2022-07-11T14:40:36;0.70;;;0.70;;
5085;SDS011;4715;51.660;7.082;2022-07-11T14:42:58;0.70;;;0.70;;
5085;SDS011;4715;51.660;7.082;2022-07-11T14:45:20;0.90;;;0.90;;
5085;SDS011;4715;51.660;7.082;2022-07-11T14:47:43;0.70;;;0.70;;
5085;SDS011;4715;51.660;7.082;2022-07-11T14:50:05;0.97;;;0.97;;
5085;SDS011;4715;51.660;7.082;2022-07-11T14:52:33;0.90;;;0.90;;
5085;SDS011;4715;51.660;7.082;2022-07-11T14:55:00;0.80;;;0.80;;
5085;SDS011;4715;51.660;7.082;2022-07-11T14:57:23;0.80;;;0.80;;
5085;SDS011;4715;51.660;7.082;2022-07-11T14:59:45;0.80;;;0.80;;
5085;SDS011;4715;51.660;7.082;2022-07-11T15:02:07;0.70;;;0.70;;